Wednesday, October 01, 2014
16:22 UTC
  |  Log In   |  Register Free
Airport Search:

Lincoln Airport
(KLNK)

FAA data valid effective September 18, 2014 - November 13, 2014 (unless otherwise noted).

 
 
 
 
 
 
 
 
 
 
 
 
 
 

Current Aviation Weather for Lincoln Airport (KLNK)

The most recent METAR observation for KLNK was updated at: 1614
METAR Summary (Translated METAR)
KLNK
011554Z 36004KT 9SM OVC009 19/16 A2977 RMK AO2 SLP076 T01890161
KAHQ
011555Z AUTO 00000KT 10SM OVC013 19/15 A2977 RMK AO2 T01890153
(24.5 nm NE from KLNK)
KBIE
011555Z AUTO 35008KT 7SM SCT009 OVC014 20/18 A2976 RMK AO2 T01960181
(33 nm SE from KLNK)
TAF Summary (Translated TAF)
KLNK
011445Z 0115/0212 VRB04KT P6SM BKN010 OVC025 FM011800 17006KT P6SM SCT010 BKN040 TEMPO 0122/0202 5SM -TSRA OVC030CB
  Airport Weather Conditions for KLNK

 Current Weather at LNK
66° F
Overcast
North winds at 4.6 mph
LNK NOAA Radar

Pressure: 29.77 in
Humidity: 84%
Wind: North at 4.6 MPH (4 KT)
Dew Point: 61.0°F
Visibility: 9.00 mi


Airport Weather Forecast for KLNK

Translated METAR and TAF for KLNK
Translated METAR for KLNK (1617 UTC 01 October 2014)
found at http://aviationweather.gov/adds/metars/
 
METAR text: KLNK 011554Z 36004KT 9SM OVC009 19/16 A2977 RMK AO2 SLP076 T01890161
Conditions at: KLNK (LINCOLN , NE, US) observed 1554 UTC 01 October 2014
Temperature: 18.9°C (66°F)
Dewpoint: 16.1°C (61°F) [RH = 84%]
Pressure (altimeter): 29.77 inches Hg (1008.2 mb)
[Sea-level pressure: 1007.6 mb]
Winds: from the N (360 degrees) at 5 MPH (4 knots; 2.1 m/s)
Visibility: 9 miles (14 km)
Ceiling: 900 feet AGL
Clouds: overcast cloud deck at 900 feet AGL
Weather: no significant weather observed at this time
Translated TAF for KLNK
Forecast for: KLNK (LINCOLN , NE, US)
TAF Text: KLNK 011445Z 0115/0212 VRB04KT P6SM BKN010 OVC025
Forecast period: 1500 to 1800 UTC 01 October 2014
Forecast type: FROM: standard forecast or significant change
Winds: variable direction winds at 5 MPH (4 knots; 2.1 m/s)
Visibility: 6 or more miles (10+ km)
Ceiling: 1000 feet AGL
Clouds: broken clouds at 1000 feet AGL
overcast cloud deck at 2500 feet AGL
Weather: no significant weather forecast for this period
TAF Text: FM011800 17006KT P6SM SCT010 BKN040
Forecast period: 1800 UTC 01 October 2014 to 1200 UTC 02 October 2014
Forecast type: FROM: standard forecast or significant change
Winds: from the S (170 degrees) at 7 MPH (6 knots; 3.1 m/s)
Visibility: 6 or more miles (10+ km)
Ceiling: 4000 feet AGL
Clouds: scattered clouds at 1000 feet AGL
broken clouds at 4000 feet AGL
Weather: no significant weather forecast for this period
TAF Text: TEMPO 0122/0202 5SM -TSRA OVC030CB
Forecast period: 2200 UTC 01 October 2014 to 0200 UTC 02 October 2014
Forecast type: TEMPORARY: The following changes expected for less than half the time period
Visibility: 5 miles (8 km)
Ceiling: 3000 feet AGL
Clouds: overcast cloud deck at 3000 feet AGL
Weather: -TSRA  (light rain associated with thunderstorm(s))

Find All Airport Services Find A Hotel Find A Rental Car Find A Golf Course Find A Restaurant $100 Hamburger



FBO's on the Field
FBO Company Facility Photos Services Transportation Aviation Fuel Prices: Prices include tax
Catering Weather Repair Courtesy Rental Type 100LL JetA JetA+ MOGAS 8087
 
Duncan Aviation

This FBO has not yet been rated
FS:Avfuel
Last Updated: Sep-30
Login to update fuel prices
SS:
Contact Duncan AviationMore FBO Information
 
Silverhawk Aviation

This FBO has not yet been rated
FS:Phillips66
Last Updated: Sep-30
Login to update fuel prices
SS:
Contact Silverhawk AviationMore FBO Information
 
Add another FBO Facility Photos Catering Weather Repair Courtesy Rental Type 100LL JetA JetA+ MOGAS 8087
Services Transportation Aviation Fuel Prices: Prices include tax


model-print
model-print
model-print
model-print